sensor_id;sensor_type;location;lat;lon;timestamp;P1;durP1;ratioP1;P2;durP2;ratioP2
20363;SDS011;10340;53.664;9.908;2023-02-18T00:01:09;16.02;;;3.38;;
20363;SDS011;10340;53.664;9.908;2023-02-18T00:03:38;12.70;;;3.10;;
20363;SDS011;10340;53.664;9.908;2023-02-18T00:06:10;14.70;;;3.07;;
20363;SDS011;10340;53.664;9.908;2023-02-18T00:08:38;13.32;;;3.95;;
20363;SDS011;10340;53.664;9.908;2023-02-18T00:11:05;14.50;;;2.95;;
20363;SDS011;10340;53.664;9.908;2023-02-18T00:13:32;14.75;;;3.00;;
20363;SDS011;10340;53.664;9.908;2023-02-18T00:16:00;12.30;;;2.70;;
20363;SDS011;10340;53.664;9.908;2023-02-18T00:18:27;18.38;;;3.72;;
20363;SDS011;10340;53.664;9.908;2023-02-18T00:20:55;10.23;;;2.97;;
20363;SDS011;10340;53.664;9.908;2023-02-18T00:23:22;13.25;;;4.32;;
20363;SDS011;10340;53.664;9.908;2023-02-18T00:25:57;16.23;;;3.00;;
20363;SDS011;10340;53.664;9.908;2023-02-18T00:28:25;11.60;;;2.85;;
20363;SDS011;10340;53.664;9.908;2023-02-18T00:30:52;13.73;;;2.83;;
20363;SDS011;10340;53.664;9.908;2023-02-18T00:33:19;14.80;;;3.25;;
20363;SDS011;10340;53.664;9.908;2023-02-18T00:35:46;15.40;;;3.13;;
20363;SDS011;10340;53.664;9.908;2023-02-18T00:38:14;12.82;;;3.28;;
20363;SDS011;10340;53.664;9.908;2023-02-18T00:40:42;8.40;;;2.88;;
20363;SDS011;10340;53.664;9.908;2023-02-18T00:43:09;12.90;;;3.03;;
20363;SDS011;10340;53.664;9.908;2023-02-18T00:45:36;10.48;;;2.97;;
20363;SDS011;10340;53.664;9.908;2023-02-18T00:48:03;14.63;;;3.35;;
20363;SDS011;10340;53.664;9.908;2023-02-18T00:50:30;14.30;;;3.30;;
20363;SDS011;10340;53.664;9.908;2023-02-18T00:52:56;20.85;;;4.43;;
20363;SDS011;10340;53.664;9.908;2023-02-18T00:55:25;9.95;;;3.45;;
20363;SDS011;10340;53.664;9.908;2023-02-18T00:57:52;14.33;;;3.53;;
20363;SDS011;10340;53.664;9.908;2023-02-18T01:00:19;13.20;;;3.00;;
20363;SDS011;10340;53.664;9.908;2023-02-18T01:02:46;10.90;;;3.30;;
20363;SDS011;10340;53.664;9.908;2023-02-18T01:05:13;12.07;;;3.20;;
20363;SDS011;10340;53.664;9.908;2023-02-18T01:07:40;15.35;;;3.13;;
20363;SDS011;10340;53.664;9.908;2023-02-18T01:10:07;13.15;;;2.90;;
20363;SDS011;10340;53.664;9.908;2023-02-18T01:12:35;18.23;;;3.03;;
20363;SDS011;10340;53.664;9.908;2023-02-18T01:15:03;14.10;;;3.33;;
20363;SDS011;10340;53.664;9.908;2023-02-18T01:17:31;11.35;;;2.85;;
20363;SDS011;10340;53.664;9.908;2023-02-18T01:19:58;11.70;;;2.80;;
20363;SDS011;10340;53.664;9.908;2023-02-18T01:22:25;9.80;;;2.65;;
20363;SDS011;10340;53.664;9.908;2023-02-18T01:24:52;10.75;;;2.95;;
20363;SDS011;10340;53.664;9.908;2023-02-18T01:27:19;8.38;;;2.33;;
20363;SDS011;10340;53.664;9.908;2023-02-18T01:29:48;14.00;;;3.10;;
20363;SDS011;10340;53.664;9.908;2023-02-18T01:32:15;13.35;;;3.00;;
20363;SDS011;10340;53.664;9.908;2023-02-18T01:34:42;9.63;;;2.63;;
20363;SDS011;10340;53.664;9.908;2023-02-18T01:37:09;15.85;;;2.78;;
20363;SDS011;10340;53.664;9.908;2023-02-18T01:39:36;9.10;;;2.70;;
20363;SDS011;10340;53.664;9.908;2023-02-18T01:42:03;18.42;;;3.30;;
20363;SDS011;10340;53.664;9.908;2023-02-18T01:44:31;8.88;;;2.47;;
20363;SDS011;10340;53.664;9.908;2023-02-18T01:47:00;11.30;;;3.10;;
20363;SDS011;10340;53.664;9.908;2023-02-18T01:49:29;13.10;;;3.05;;
20363;SDS011;10340;53.664;9.908;2023-02-18T01:52:01;14.95;;;2.95;;
20363;SDS011;10340;53.664;9.908;2023-02-18T01:54:32;12.32;;;2.95;;
20363;SDS011;10340;53.664;9.908;2023-02-18T01:57:02;14.45;;;2.72;;
20363;SDS011;10340;53.664;9.908;2023-02-18T01:59:32;15.23;;;2.72;;
20363;SDS011;10340;53.664;9.908;2023-02-18T02:02:04;11.30;;;2.95;;
20363;SDS011;10340;53.664;9.908;2023-02-18T02:04:35;9.10;;;2.58;;
20363;SDS011;10340;53.664;9.908;2023-02-18T02:07:02;9.25;;;2.88;;
20363;SDS011;10340;53.664;9.908;2023-02-18T02:09:29;22.63;;;3.20;;
20363;SDS011;10340;53.664;9.908;2023-02-18T02:12:05;14.50;;;3.90;;
20363;SDS011;10340;53.664;9.908;2023-02-18T02:15:02;12.10;;;2.83;;
20363;SDS011;10340;53.664;9.908;2023-02-18T02:17:44;13.68;;;2.97;;
20363;SDS011;10340;53.664;9.908;2023-02-18T02:20:22;11.63;;;2.53;;
20363;SDS011;10340;53.664;9.908;2023-02-18T02:23:33;15.73;;;2.92;;
20363;SDS011;10340;53.664;9.908;2023-02-18T02:26:28;11.57;;;2.72;;
20363;SDS011;10340;53.664;9.908;2023-02-18T02:29:39;13.10;;;2.60;;
20363;SDS011;10340;53.664;9.908;2023-02-18T02:35:28;12.57;;;3.15;;
20363;SDS011;10340;53.664;9.908;2023-02-18T02:37:58;18.60;;;3.53;;
20363;SDS011;10340;53.664;9.908;2023-02-18T02:40:32;8.02;;;2.72;;
20363;SDS011;10340;53.664;9.908;2023-02-18T02:43:05;12.13;;;2.60;;
20363;SDS011;10340;53.664;9.908;2023-02-18T02:45:38;15.07;;;2.75;;
20363;SDS011;10340;53.664;9.908;2023-02-18T02:48:14;8.20;;;2.72;;
20363;SDS011;10340;53.664;9.908;2023-02-18T02:50:50;10.23;;;2.30;;
20363;SDS011;10340;53.664;9.908;2023-02-18T02:53:21;15.35;;;2.00;;
20363;SDS011;10340;53.664;9.908;2023-02-18T02:55:52;8.32;;;2.78;;
20363;SDS011;10340;53.664;9.908;2023-02-18T02:58:20;11.95;;;2.55;;
20363;SDS011;10340;53.664;9.908;2023-02-18T03:01:01;9.88;;;2.40;;
20363;SDS011;10340;53.664;9.908;2023-02-18T03:09:42;8.10;;;2.13;;
20363;SDS011;10340;53.664;9.908;2023-02-18T03:12:24;11.32;;;2.20;;
20363;SDS011;10340;53.664;9.908;2023-02-18T03:15:01;6.78;;;2.30;;
20363;SDS011;10340;53.664;9.908;2023-02-18T03:17:34;10.20;;;2.17;;
20363;SDS011;10340;53.664;9.908;2023-02-18T03:20:05;12.50;;;3.38;;
20363;SDS011;10340;53.664;9.908;2023-02-18T03:22:38;10.55;;;3.25;;
20363;SDS011;10340;53.664;9.908;2023-02-18T03:25:09;11.68;;;2.78;;
20363;SDS011;10340;53.664;9.908;2023-02-18T03:27:39;12.38;;;2.70;;
20363;SDS011;10340;53.664;9.908;2023-02-18T03:30:10;8.43;;;2.42;;
20363;SDS011;10340;53.664;9.908;2023-02-18T03:32:41;7.82;;;2.42;;
20363;SDS011;10340;53.664;9.908;2023-02-18T03:35:11;9.25;;;2.50;;
20363;SDS011;10340;53.664;9.908;2023-02-18T03:37:42;6.82;;;2.15;;
20363;SDS011;10340;53.664;9.908;2023-02-18T03:40:13;9.30;;;1.90;;
20363;SDS011;10340;53.664;9.908;2023-02-18T03:42:42;10.25;;;2.60;;
20363;SDS011;10340;53.664;9.908;2023-02-18T03:45:09;6.22;;;1.92;;
20363;SDS011;10340;53.664;9.908;2023-02-18T03:47:36;8.25;;;2.00;;
20363;SDS011;10340;53.664;9.908;2023-02-18T03:50:04;6.60;;;2.33;;
20363;SDS011;10340;53.664;9.908;2023-02-18T03:52:32;7.07;;;2.90;;
20363;SDS011;10340;53.664;9.908;2023-02-18T03:55:02;7.40;;;1.98;;
20363;SDS011;10340;53.664;9.908;2023-02-18T03:57:29;8.07;;;1.90;;
20363;SDS011;10340;53.664;9.908;2023-02-18T03:59:56;7.50;;;1.67;;
20363;SDS011;10340;53.664;9.908;2023-02-18T04:02:23;7.43;;;1.60;;
20363;SDS011;10340;53.664;9.908;2023-02-18T04:04:50;4.88;;;1.92;;
20363;SDS011;10340;53.664;9.908;2023-02-18T04:07:17;8.20;;;1.90;;
20363;SDS011;10340;53.664;9.908;2023-02-18T04:09:44;6.68;;;2.47;;
20363;SDS011;10340;53.664;9.908;2023-02-18T04:12:12;6.55;;;1.77;;
20363;SDS011;10340;53.664;9.908;2023-02-18T04:14:39;9.60;;;2.00;;
20363;SDS011;10340;53.664;9.908;2023-02-18T04:17:06;6.57;;;1.80;;
20363;SDS011;10340;53.664;9.908;2023-02-18T04:19:34;5.75;;;1.77;;
20363;SDS011;10340;53.664;9.908;2023-02-18T04:22:01;5.82;;;1.80;;
20363;SDS011;10340;53.664;9.908;2023-02-18T04:24:28;4.72;;;1.63;;
20363;SDS011;10340;53.664;9.908;2023-02-18T04:26:55;8.13;;;1.90;;
20363;SDS011;10340;53.664;9.908;2023-02-18T04:29:23;7.50;;;1.80;;
20363;SDS011;10340;53.664;9.908;2023-02-18T04:31:50;4.95;;;1.40;;
20363;SDS011;10340;53.664;9.908;2023-02-18T04:34:17;10.32;;;2.28;;
20363;SDS011;10340;53.664;9.908;2023-02-18T04:36:44;6.17;;;1.40;;
20363;SDS011;10340;53.664;9.908;2023-02-18T04:39:11;8.07;;;1.92;;
20363;SDS011;10340;53.664;9.908;2023-02-18T04:41:38;7.05;;;2.13;;
20363;SDS011;10340;53.664;9.908;2023-02-18T04:44:05;9.27;;;1.90;;
20363;SDS011;10340;53.664;9.908;2023-02-18T04:46:34;6.32;;;1.58;;
20363;SDS011;10340;53.664;9.908;2023-02-18T04:49:01;6.22;;;1.63;;
20363;SDS011;10340;53.664;9.908;2023-02-18T04:51:28;4.63;;;1.77;;
20363;SDS011;10340;53.664;9.908;2023-02-18T04:53:55;6.88;;;2.13;;
20363;SDS011;10340;53.664;9.908;2023-02-18T04:56:22;7.63;;;1.67;;
20363;SDS011;10340;53.664;9.908;2023-02-18T04:58:49;7.43;;;1.77;;
20363;SDS011;10340;53.664;9.908;2023-02-18T05:01:16;7.70;;;1.77;;
20363;SDS011;10340;53.664;9.908;2023-02-18T05:03:45;6.78;;;1.95;;
20363;SDS011;10340;53.664;9.908;2023-02-18T05:06:12;9.30;;;2.00;;
20363;SDS011;10340;53.664;9.908;2023-02-18T05:08:39;3.42;;;1.50;;
20363;SDS011;10340;53.664;9.908;2023-02-18T05:11:06;7.75;;;2.13;;
20363;SDS011;10340;53.664;9.908;2023-02-18T05:13:33;9.00;;;1.90;;
20363;SDS011;10340;53.664;9.908;2023-02-18T05:16:00;7.77;;;1.93;;
20363;SDS011;10340;53.664;9.908;2023-02-18T05:18:27;4.70;;;1.60;;
20363;SDS011;10340;53.664;9.908;2023-02-18T05:20:56;6.78;;;1.45;;
20363;SDS011;10340;53.664;9.908;2023-02-18T05:23:22;8.10;;;1.90;;
20363;SDS011;10340;53.664;9.908;2023-02-18T05:25:50;6.40;;;1.90;;
20363;SDS011;10340;53.664;9.908;2023-02-18T05:28:17;5.22;;;1.67;;
20363;SDS011;10340;53.664;9.908;2023-02-18T05:30:44;7.32;;;1.83;;
20363;SDS011;10340;53.664;9.908;2023-02-18T05:33:11;6.70;;;1.80;;
20363;SDS011;10340;53.664;9.908;2023-02-18T05:35:38;5.77;;;1.90;;
20363;SDS011;10340;53.664;9.908;2023-02-18T05:38:07;6.13;;;1.80;;
20363;SDS011;10340;53.664;9.908;2023-02-18T05:40:34;8.05;;;1.77;;
20363;SDS011;10340;53.664;9.908;2023-02-18T05:43:01;7.32;;;1.83;;
20363;SDS011;10340;53.664;9.908;2023-02-18T05:45:28;4.90;;;1.45;;
20363;SDS011;10340;53.664;9.908;2023-02-18T05:47:54;6.07;;;2.05;;
20363;SDS011;10340;53.664;9.908;2023-02-18T05:50:21;6.03;;;1.50;;
20363;SDS011;10340;53.664;9.908;2023-02-18T05:52:48;8.10;;;1.88;;
20363;SDS011;10340;53.664;9.908;2023-02-18T05:55:16;8.35;;;1.88;;
20363;SDS011;10340;53.664;9.908;2023-02-18T05:57:44;6.40;;;2.00;;
20363;SDS011;10340;53.664;9.908;2023-02-18T06:00:11;5.55;;;1.52;;
20363;SDS011;10340;53.664;9.908;2023-02-18T06:02:39;9.23;;;1.80;;
20363;SDS011;10340;53.664;9.908;2023-02-18T06:05:06;9.67;;;2.23;;
20363;SDS011;10340;53.664;9.908;2023-02-18T06:07:33;6.90;;;1.90;;
20363;SDS011;10340;53.664;9.908;2023-02-18T06:10:00;12.10;;;2.45;;
20363;SDS011;10340;53.664;9.908;2023-02-18T06:12:29;7.70;;;2.03;;
20363;SDS011;10340;53.664;9.908;2023-02-18T06:14:56;10.13;;;2.53;;
20363;SDS011;10340;53.664;9.908;2023-02-18T06:17:23;9.23;;;2.40;;
20363;SDS011;10340;53.664;9.908;2023-02-18T06:19:50;8.75;;;1.98;;
20363;SDS011;10340;53.664;9.908;2023-02-18T06:22:17;9.60;;;2.50;;
20363;SDS011;10340;53.664;9.908;2023-02-18T06:24:44;5.40;;;1.90;;
20363;SDS011;10340;53.664;9.908;2023-02-18T06:27:11;4.93;;;1.73;;
20363;SDS011;10340;53.664;9.908;2023-02-18T06:29:39;7.23;;;2.07;;
20363;SDS011;10340;53.664;9.908;2023-02-18T06:32:06;6.53;;;1.88;;
20363;SDS011;10340;53.664;9.908;2023-02-18T06:34:33;5.13;;;1.58;;
20363;SDS011;10340;53.664;9.908;2023-02-18T06:37:00;6.30;;;1.77;;
20363;SDS011;10340;53.664;9.908;2023-02-18T06:39:27;3.97;;;1.40;;
20363;SDS011;10340;53.664;9.908;2023-02-18T06:41:54;6.30;;;1.57;;
20363;SDS011;10340;53.664;9.908;2023-02-18T06:44:22;6.65;;;1.63;;
20363;SDS011;10340;53.664;9.908;2023-02-18T06:46:50;5.77;;;1.67;;
20363;SDS011;10340;53.664;9.908;2023-02-18T06:49:17;4.87;;;1.70;;
20363;SDS011;10340;53.664;9.908;2023-02-18T06:51:44;4.53;;;1.57;;
20363;SDS011;10340;53.664;9.908;2023-02-18T06:54:11;8.93;;;1.50;;
20363;SDS011;10340;53.664;9.908;2023-02-18T06:56:38;6.90;;;1.43;;
20363;SDS011;10340;53.664;9.908;2023-02-18T06:59:05;5.50;;;1.70;;
20363;SDS011;10340;53.664;9.908;2023-02-18T07:01:32;5.22;;;1.70;;
20363;SDS011;10340;53.664;9.908;2023-02-18T07:04:00;2.87;;;1.40;;
20363;SDS011;10340;53.664;9.908;2023-02-18T07:06:27;5.95;;;1.85;;
20363;SDS011;10340;53.664;9.908;2023-02-18T07:08:54;9.27;;;1.85;;
20363;SDS011;10340;53.664;9.908;2023-02-18T07:11:21;9.30;;;1.85;;
20363;SDS011;10340;53.664;9.908;2023-02-18T07:13:48;3.70;;;1.60;;
20363;SDS011;10340;53.664;9.908;2023-02-18T07:16:15;7.20;;;1.48;;
20363;SDS011;10340;53.664;9.908;2023-02-18T07:18:42;3.47;;;1.65;;
20363;SDS011;10340;53.664;9.908;2023-02-18T07:21:10;8.80;;;1.98;;
20363;SDS011;10340;53.664;9.908;2023-02-18T07:23:37;6.35;;;1.90;;
20363;SDS011;10340;53.664;9.908;2023-02-18T07:26:05;7.63;;;1.67;;
20363;SDS011;10340;53.664;9.908;2023-02-18T07:28:34;2.60;;;1.53;;
20363;SDS011;10340;53.664;9.908;2023-02-18T07:31:01;3.92;;;1.70;;
20363;SDS011;10340;53.664;9.908;2023-02-18T07:33:29;5.20;;;2.00;;
20363;SDS011;10340;53.664;9.908;2023-02-18T07:35:57;4.57;;;1.92;;
20363;SDS011;10340;53.664;9.908;2023-02-18T07:38:26;5.70;;;1.73;;
20363;SDS011;10340;53.664;9.908;2023-02-18T07:40:54;2.88;;;1.60;;
20363;SDS011;10340;53.664;9.908;2023-02-18T07:43:22;3.10;;;1.50;;
20363;SDS011;10340;53.664;9.908;2023-02-18T07:45:49;2.80;;;1.27;;
20363;SDS011;10340;53.664;9.908;2023-02-18T07:48:16;2.75;;;1.20;;
20363;SDS011;10340;53.664;9.908;2023-02-18T07:50:43;1.67;;;1.02;;
20363;SDS011;10340;53.664;9.908;2023-02-18T07:53:11;2.45;;;1.35;;
20363;SDS011;10340;53.664;9.908;2023-02-18T07:55:41;4.55;;;1.73;;
20363;SDS011;10340;53.664;9.908;2023-02-18T07:58:17;2.28;;;1.60;;
20363;SDS011;10340;53.664;9.908;2023-02-18T08:00:46;8.00;;;2.28;;
20363;SDS011;10340;53.664;9.908;2023-02-18T08:03:14;4.40;;;1.90;;
20363;SDS011;10340;53.664;9.908;2023-02-18T08:05:42;3.17;;;1.77;;
20363;SDS011;10340;53.664;9.908;2023-02-18T08:08:11;3.97;;;1.35;;
20363;SDS011;10340;53.664;9.908;2023-02-18T08:10:41;4.35;;;1.80;;
20363;SDS011;10340;53.664;9.908;2023-02-18T08:13:08;5.10;;;2.05;;
20363;SDS011;10340;53.664;9.908;2023-02-18T08:15:36;4.63;;;2.28;;
20363;SDS011;10340;53.664;9.908;2023-02-18T08:18:03;6.43;;;2.45;;
20363;SDS011;10340;53.664;9.908;2023-02-18T08:20:34;5.00;;;1.80;;
20363;SDS011;10340;53.664;9.908;2023-02-18T08:23:02;3.30;;;1.80;;
20363;SDS011;10340;53.664;9.908;2023-02-18T08:25:29;4.32;;;1.58;;
20363;SDS011;10340;53.664;9.908;2023-02-18T08:27:57;5.50;;;2.08;;
20363;SDS011;10340;53.664;9.908;2023-02-18T08:30:25;4.35;;;1.98;;
20363;SDS011;10340;53.664;9.908;2023-02-18T08:32:52;6.72;;;1.85;;
20363;SDS011;10340;53.664;9.908;2023-02-18T08:35:19;6.45;;;2.00;;
20363;SDS011;10340;53.664;9.908;2023-02-18T08:37:46;7.13;;;2.35;;
20363;SDS011;10340;53.664;9.908;2023-02-18T08:40:13;6.55;;;1.80;;
20363;SDS011;10340;53.664;9.908;2023-02-18T08:42:40;5.18;;;1.80;;
20363;SDS011;10340;53.664;9.908;2023-02-18T08:45:09;4.47;;;1.40;;
20363;SDS011;10340;53.664;9.908;2023-02-18T08:47:36;3.72;;;2.00;;
20363;SDS011;10340;53.664;9.908;2023-02-18T08:50:03;3.83;;;1.80;;
20363;SDS011;10340;53.664;9.908;2023-02-18T08:52:30;5.95;;;2.60;;
20363;SDS011;10340;53.664;9.908;2023-02-18T08:54:57;3.40;;;1.77;;
20363;SDS011;10340;53.664;9.908;2023-02-18T08:57:24;3.92;;;1.50;;
20363;SDS011;10340;53.664;9.908;2023-02-18T08:59:52;3.28;;;1.20;;
20363;SDS011;10340;53.664;9.908;2023-02-18T09:02:20;4.18;;;1.40;;
20363;SDS011;10340;53.664;9.908;2023-02-18T09:04:47;4.15;;;1.65;;
20363;SDS011;10340;53.664;9.908;2023-02-18T09:07:15;3.90;;;2.25;;
20363;SDS011;10340;53.664;9.908;2023-02-18T09:09:41;3.95;;;2.35;;
20363;SDS011;10340;53.664;9.908;2023-02-18T09:12:08;3.47;;;1.85;;
20363;SDS011;10340;53.664;9.908;2023-02-18T09:14:35;5.75;;;2.28;;
20363;SDS011;10340;53.664;9.908;2023-02-18T09:17:02;5.13;;;2.20;;
20363;SDS011;10340;53.664;9.908;2023-02-18T09:19:31;5.35;;;1.83;;
20363;SDS011;10340;53.664;9.908;2023-02-18T09:21:58;4.05;;;2.05;;
20363;SDS011;10340;53.664;9.908;2023-02-18T09:24:25;3.85;;;1.38;;
20363;SDS011;10340;53.664;9.908;2023-02-18T09:26:51;5.20;;;1.88;;
20363;SDS011;10340;53.664;9.908;2023-02-18T09:29:19;6.65;;;2.10;;
20363;SDS011;10340;53.664;9.908;2023-02-18T09:31:46;6.20;;;2.28;;
20363;SDS011;10340;53.664;9.908;2023-02-18T09:34:13;3.38;;;1.90;;
20363;SDS011;10340;53.664;9.908;2023-02-18T09:36:41;2.85;;;2.10;;
20363;SDS011;10340;53.664;9.908;2023-02-18T09:39:08;5.20;;;2.53;;
20363;SDS011;10340;53.664;9.908;2023-02-18T09:41:37;3.97;;;2.20;;
20363;SDS011;10340;53.664;9.908;2023-02-18T09:44:10;6.75;;;2.00;;
20363;SDS011;10340;53.664;9.908;2023-02-18T09:46:42;4.22;;;2.17;;
20363;SDS011;10340;53.664;9.908;2023-02-18T09:49:16;7.88;;;2.85;;
20363;SDS011;10340;53.664;9.908;2023-02-18T09:51:48;4.47;;;2.60;;
20363;SDS011;10340;53.664;9.908;2023-02-18T09:54:16;8.00;;;3.35;;
20363;SDS011;10340;53.664;9.908;2023-02-18T09:56:45;6.00;;;3.03;;
20363;SDS011;10340;53.664;9.908;2023-02-18T09:59:14;3.67;;;2.97;;
20363;SDS011;10340;53.664;9.908;2023-02-18T10:01:43;5.30;;;3.35;;
20363;SDS011;10340;53.664;9.908;2023-02-18T10:04:14;4.00;;;3.60;;
20363;SDS011;10340;53.664;9.908;2023-02-18T10:06:43;4.50;;;3.75;;
20363;SDS011;10340;53.664;9.908;2023-02-18T10:09:15;5.75;;;3.45;;
20363;SDS011;10340;53.664;9.908;2023-02-18T10:11:47;4.53;;;3.92;;
20363;SDS011;10340;53.664;9.908;2023-02-18T10:14:15;4.07;;;3.50;;
20363;SDS011;10340;53.664;9.908;2023-02-18T10:16:44;5.63;;;4.57;;
20363;SDS011;10340;53.664;9.908;2023-02-18T10:19:18;7.40;;;4.30;;
20363;SDS011;10340;53.664;9.908;2023-02-18T10:21:48;4.65;;;4.18;;
20363;SDS011;10340;53.664;9.908;2023-02-18T10:24:21;4.20;;;3.40;;
20363;SDS011;10340;53.664;9.908;2023-02-18T10:26:53;4.40;;;4.00;;
20363;SDS011;10340;53.664;9.908;2023-02-18T10:29:21;4.60;;;4.20;;
20363;SDS011;10340;53.664;9.908;2023-02-18T10:31:50;4.88;;;3.80;;
20363;SDS011;10340;53.664;9.908;2023-02-18T10:34:23;6.60;;;5.93;;
20363;SDS011;10340;53.664;9.908;2023-02-18T10:37:06;5.40;;;4.38;;
20363;SDS011;10340;53.664;9.908;2023-02-18T10:39:52;4.53;;;4.13;;
20363;SDS011;10340;53.664;9.908;2023-02-18T10:42:31;4.55;;;3.15;;
20363;SDS011;10340;53.664;9.908;2023-02-18T10:45:08;3.72;;;3.42;;
20363;SDS011;10340;53.664;9.908;2023-02-18T10:47:46;4.65;;;3.65;;
20363;SDS011;10340;53.664;9.908;2023-02-18T10:50:24;5.60;;;3.97;;
20363;SDS011;10340;53.664;9.908;2023-02-18T10:52:56;4.40;;;3.53;;
20363;SDS011;10340;53.664;9.908;2023-02-18T10:55:36;5.82;;;4.05;;
20363;SDS011;10340;53.664;9.908;2023-02-18T10:58:09;3.60;;;3.30;;
20363;SDS011;10340;53.664;9.908;2023-02-18T11:00:51;4.35;;;3.92;;
20363;SDS011;10340;53.664;9.908;2023-02-18T11:03:20;4.25;;;3.85;;
20363;SDS011;10340;53.664;9.908;2023-02-18T11:05:49;5.30;;;4.50;;
20363;SDS011;10340;53.664;9.908;2023-02-18T11:08:19;4.20;;;3.75;;
20363;SDS011;10340;53.664;9.908;2023-02-18T11:10:49;4.30;;;3.90;;
20363;SDS011;10340;53.664;9.908;2023-02-18T11:13:22;4.60;;;4.20;;
20363;SDS011;10340;53.664;9.908;2023-02-18T11:15:55;4.85;;;4.10;;
20363;SDS011;10340;53.664;9.908;2023-02-18T11:18:29;5.28;;;4.30;;
20363;SDS011;10340;53.664;9.908;2023-02-18T11:21:02;4.65;;;4.25;;
20363;SDS011;10340;53.664;9.908;2023-02-18T11:23:32;5.40;;;4.90;;
20363;SDS011;10340;53.664;9.908;2023-02-18T11:26:14;4.85;;;4.40;;
20363;SDS011;10340;53.664;9.908;2023-02-18T11:28:42;5.85;;;5.25;;
20363;SDS011;10340;53.664;9.908;2023-02-18T11:31:15;5.60;;;4.53;;
20363;SDS011;10340;53.664;9.908;2023-02-18T11:33:47;4.63;;;4.22;;
20363;SDS011;10340;53.664;9.908;2023-02-18T11:36:23;5.20;;;4.70;;
20363;SDS011;10340;53.664;9.908;2023-02-18T11:38:53;4.50;;;4.10;;
20363;SDS011;10340;53.664;9.908;2023-02-18T11:41:29;5.20;;;4.55;;
20363;SDS011;10340;53.664;9.908;2023-02-18T11:43:59;5.35;;;4.85;;
20363;SDS011;10340;53.664;9.908;2023-02-18T11:46:27;5.80;;;5.25;;
20363;SDS011;10340;53.664;9.908;2023-02-18T11:48:54;6.45;;;5.78;;
20363;SDS011;10340;53.664;9.908;2023-02-18T11:51:23;5.25;;;4.82;;
20363;SDS011;10340;53.664;9.908;2023-02-18T11:53:58;4.32;;;3.92;;
20363;SDS011;10340;53.664;9.908;2023-02-18T11:56:29;3.42;;;3.13;;
20363;SDS011;10340;53.664;9.908;2023-02-18T11:58:59;3.33;;;3.03;;
20363;SDS011;10340;53.664;9.908;2023-02-18T12:01:29;3.65;;;3.20;;
20363;SDS011;10340;53.664;9.908;2023-02-18T12:04:05;3.35;;;3.05;;
20363;SDS011;10340;53.664;9.908;2023-02-18T12:06:37;2.33;;;2.13;;
20363;SDS011;10340;53.664;9.908;2023-02-18T12:09:13;1.60;;;1.50;;
20363;SDS011;10340;53.664;9.908;2023-02-18T12:11:51;1.90;;;1.30;;
20363;SDS011;10340;53.664;9.908;2023-02-18T12:14:22;1.63;;;1.40;;
20363;SDS011;10340;53.664;9.908;2023-02-18T12:17:01;1.00;;;1.00;;
20363;SDS011;10340;53.664;9.908;2023-02-18T12:19:46;1.15;;;1.02;;
20363;SDS011;10340;53.664;9.908;2023-02-18T12:22:27;1.60;;;1.10;;
20363;SDS011;10340;53.664;9.908;2023-02-18T12:25:09;1.65;;;1.10;;
20363;SDS011;10340;53.664;9.908;2023-02-18T12:27:50;5.95;;;1.83;;
20363;SDS011;10340;53.664;9.908;2023-02-18T12:30:27;3.88;;;1.92;;
20363;SDS011;10340;53.664;9.908;2023-02-18T12:33:03;4.68;;;2.03;;
20363;SDS011;10340;53.664;9.908;2023-02-18T12:35:48;4.97;;;2.28;;
20363;SDS011;10340;53.664;9.908;2023-02-18T12:38:29;7.40;;;2.20;;
20363;SDS011;10340;53.664;9.908;2023-02-18T12:41:18;7.43;;;2.45;;
20363;SDS011;10340;53.664;9.908;2023-02-18T12:43:57;6.22;;;2.67;;
20363;SDS011;10340;53.664;9.908;2023-02-18T12:46:36;10.68;;;2.53;;
20363;SDS011;10340;53.664;9.908;2023-02-18T12:49:31;8.13;;;3.08;;
20363;SDS011;10340;53.664;9.908;2023-02-18T12:52:15;11.77;;;3.15;;
20363;SDS011;10340;53.664;9.908;2023-02-18T12:54:57;15.52;;;2.97;;
20363;SDS011;10340;53.664;9.908;2023-02-18T12:57:44;9.40;;;2.20;;
20363;SDS011;10340;53.664;9.908;2023-02-18T13:03:25;5.75;;;2.28;;
20363;SDS011;10340;53.664;9.908;2023-02-18T13:06:02;9.77;;;2.53;;
20363;SDS011;10340;53.664;9.908;2023-02-18T13:08:40;8.23;;;3.00;;
20363;SDS011;10340;53.664;9.908;2023-02-18T13:11:19;10.57;;;2.58;;
20363;SDS011;10340;53.664;9.908;2023-02-18T13:13:56;11.00;;;2.58;;
20363;SDS011;10340;53.664;9.908;2023-02-18T13:16:27;8.88;;;3.17;;
20363;SDS011;10340;53.664;9.908;2023-02-18T13:18:59;8.43;;;3.30;;
20363;SDS011;10340;53.664;9.908;2023-02-18T13:21:32;10.27;;;3.13;;
20363;SDS011;10340;53.664;9.908;2023-02-18T13:24:03;8.98;;;2.67;;
20363;SDS011;10340;53.664;9.908;2023-02-18T13:26:35;11.90;;;3.08;;
20363;SDS011;10340;53.664;9.908;2023-02-18T13:29:15;7.07;;;2.85;;
20363;SDS011;10340;53.664;9.908;2023-02-18T13:31:51;12.77;;;3.20;;
20363;SDS011;10340;53.664;9.908;2023-02-18T13:34:30;10.43;;;3.08;;
20363;SDS011;10340;53.664;9.908;2023-02-18T13:37:06;6.80;;;3.00;;
20363;SDS011;10340;53.664;9.908;2023-02-18T13:39:46;8.50;;;3.30;;
20363;SDS011;10340;53.664;9.908;2023-02-18T13:42:24;5.72;;;2.47;;
20363;SDS011;10340;53.664;9.908;2023-02-18T13:47:52;3.60;;;2.60;;
20363;SDS011;10340;53.664;9.908;2023-02-18T13:53:12;6.30;;;2.90;;
20363;SDS011;10340;53.664;9.908;2023-02-18T13:55:49;2.33;;;2.13;;
20363;SDS011;10340;53.664;9.908;2023-02-18T13:58:23;2.33;;;2.13;;
20363;SDS011;10340;53.664;9.908;2023-02-18T14:00:56;2.60;;;1.75;;
20363;SDS011;10340;53.664;9.908;2023-02-18T14:03:30;1.88;;;1.77;;
20363;SDS011;10340;53.664;9.908;2023-02-18T14:06:13;1.90;;;1.80;;
20363;SDS011;10340;53.664;9.908;2023-02-18T14:08:41;1.95;;;1.85;;
20363;SDS011;10340;53.664;9.908;2023-02-18T14:14:15;2.30;;;2.20;;
20363;SDS011;10340;53.664;9.908;2023-02-18T14:23:11;3.35;;;3.00;;
20363;SDS011;10340;53.664;9.908;2023-02-18T14:26:00;2.40;;;1.98;;
20363;SDS011;10340;53.664;9.908;2023-02-18T14:28:36;2.10;;;1.98;;
20363;SDS011;10340;53.664;9.908;2023-02-18T14:31:26;2.33;;;1.63;;
20363;SDS011;10340;53.664;9.908;2023-02-18T14:34:14;1.58;;;1.48;;
20363;SDS011;10340;53.664;9.908;2023-02-18T14:40:00;1.43;;;1.40;;
20363;SDS011;10340;53.664;9.908;2023-02-18T14:42:47;1.80;;;1.70;;
20363;SDS011;10340;53.664;9.908;2023-02-18T14:45:23;0.93;;;0.93;;
20363;SDS011;10340;53.664;9.908;2023-02-18T14:48:13;0.90;;;0.90;;
20363;SDS011;10340;53.664;9.908;2023-02-18T14:50:50;0.95;;;0.95;;
20363;SDS011;10340;53.664;9.908;2023-02-18T14:53:19;0.88;;;0.88;;
20363;SDS011;10340;53.664;9.908;2023-02-18T14:55:49;1.27;;;1.00;;
20363;SDS011;10340;53.664;9.908;2023-02-18T14:58:23;1.45;;;1.38;;
20363;SDS011;10340;53.664;9.908;2023-02-18T15:00:55;1.17;;;1.08;;
20363;SDS011;10340;53.664;9.908;2023-02-18T15:03:22;0.70;;;0.70;;
20363;SDS011;10340;53.664;9.908;2023-02-18T15:05:53;0.82;;;0.82;;
20363;SDS011;10340;53.664;9.908;2023-02-18T15:08:21;1.30;;;0.90;;
20363;SDS011;10340;53.664;9.908;2023-02-18T15:10:51;2.47;;;1.50;;
20363;SDS011;10340;53.664;9.908;2023-02-18T15:13:24;0.80;;;0.80;;
20363;SDS011;10340;53.664;9.908;2023-02-18T15:15:54;0.90;;;0.90;;
20363;SDS011;10340;53.664;9.908;2023-02-18T15:18:26;0.80;;;0.80;;
20363;SDS011;10340;53.664;9.908;2023-02-18T15:20:56;0.95;;;0.95;;
20363;SDS011;10340;53.664;9.908;2023-02-18T15:23:26;0.90;;;0.90;;
20363;SDS011;10340;53.664;9.908;2023-02-18T15:25:56;1.90;;;1.30;;
20363;SDS011;10340;53.664;9.908;2023-02-18T15:28:24;1.10;;;1.10;;
20363;SDS011;10340;53.664;9.908;2023-02-18T15:30:54;1.40;;;1.30;;
20363;SDS011;10340;53.664;9.908;2023-02-18T15:33:22;2.30;;;1.60;;
20363;SDS011;10340;53.664;9.908;2023-02-18T15:35:50;1.40;;;1.30;;
20363;SDS011;10340;53.664;9.908;2023-02-18T15:38:17;1.20;;;1.10;;